Time;durP1;ratioP1;P1;durP2;ratioP2;P2;SDS_P1;SDS_P2;PMS_P1;PMS_P2;Temp;Humidity;BMP_temperature;BMP_pressure;BME280_temperature;BME280_humidity;BME280_pressure;Samples;Min_cycle;Max_cycle;Signal;HPM_P1;HPM_P2
2022/03/04 00:01:58;;;;;;;;;61.67;47.00;;;;;10.89;100.00;101281.00;5078353;27;45500;-86
2022/03/04 00:04:23;;;;;;;;;52.33;41.67;;;;;10.81;100.00;101286.75;5080180;27;45071;-87
2022/03/04 00:06:49;;;;;;;;;60.33;46.33;;;;;10.74;100.00;101289.88;5079262;27;45386;-85
2022/03/04 00:09:15;;;;;;;;;61.00;47.00;;;;;10.67;100.00;101285.84;5076796;27;45350;-85
2022/03/04 00:11:41;;;;;;;;;56.00;46.00;;;;;10.59;100.00;101288.97;5080545;27;44845;-87
2022/03/04 00:14:06;;;;;;;;;61.67;47.33;;;;;10.51;100.00;101286.75;5083018;28;45142;-86
2022/03/04 00:16:32;;;;;;;;;60.67;49.33;;;;;10.45;100.00;101295.06;5097534;27;45434;-86
2022/03/04 00:19:07;;;;;;;;;64.33;51.00;;;;;10.39;100.00;101295.41;5078217;27;44824;-87
2022/03/04 00:21:52;;;;;;;;;60.67;45.67;;;;;10.34;100.00;101296.63;5095575;27;45627;-86
2022/03/04 00:24:22;;;;;;;;;66.67;50.67;;;;;10.30;100.00;101295.97;5079705;27;45210;-87
2022/03/04 00:26:50;;;;;;;;;66.33;48.67;;;;;10.26;100.00;101297.06;5078562;27;45384;-86
2022/03/04 00:29:16;;;;;;;;;66.67;48.33;;;;;10.26;100.00;101295.28;5080455;28;44698;-85
2022/03/04 00:31:42;;;;;;;;;64.67;49.67;;;;;10.25;100.00;101292.69;5085921;27;44858;-86
2022/03/04 00:34:08;;;;;;;;;64.67;51.00;;;;;10.25;100.00;101300.66;5086813;27;46539;-86
2022/03/04 00:36:35;;;;;;;;;66.00;50.33;;;;;10.22;100.00;101298.16;5089708;27;45164;-87
2022/03/04 00:39:03;;;;;;;;;61.67;48.33;;;;;10.16;100.00;101286.09;5087016;27;44755;-88
2022/03/04 00:41:28;;;;;;;;;60.67;47.67;;;;;10.10;100.00;101290.84;5085843;27;44965;-88
2022/03/04 00:43:54;;;;;;;;;62.67;49.33;;;;;10.01;100.00;101295.75;5084338;27;45187;-86
2022/03/04 00:46:23;;;;;;;;;65.00;51.33;;;;;9.94;100.00;101290.88;5081087;27;45472;-86
2022/03/04 00:48:48;;;;;;;;;67.00;52.00;;;;;9.90;100.00;101286.66;5097828;27;44720;-88
2022/03/04 00:51:15;;;;;;;;;67.00;52.33;;;;;9.85;100.00;101284.25;5081421;27;44815;-88
2022/03/04 00:53:41;;;;;;;;;62.00;48.67;;;;;9.82;100.00;101286.25;5082792;27;46989;-86
2022/03/04 00:56:08;;;;;;;;;61.67;49.33;;;;;9.76;100.00;101295.38;5083402;27;45376;-88
2022/03/04 00:58:34;;;;;;;;;64.33;51.33;;;;;9.71;100.00;101289.47;5081654;27;45511;-88
2022/03/04 01:01:00;;;;;;;;;64.67;50.67;;;;;9.65;100.00;101280.06;5084837;27;44842;-85
2022/03/04 01:03:25;;;;;;;;;56.00;43.67;;;;;9.63;100.00;101289.91;5092656;27;45001;-86
2022/03/04 01:05:51;;;;;;;;;65.67;50.00;;;;;9.61;100.00;101290.91;5088775;27;44753;-86
2022/03/04 01:08:17;;;;;;;;;65.33;51.33;;;;;9.57;100.00;101286.69;5090939;28;45294;-85
2022/03/04 01:10:42;;;;;;;;;61.00;49.33;;;;;9.52;100.00;101290.47;5099428;27;44892;-87
2022/03/04 01:13:09;;;;;;;;;67.00;52.00;;;;;9.47;100.00;101292.50;5091766;27;45003;-85
2022/03/04 01:15:35;;;;;;;;;67.00;52.67;;;;;9.41;100.00;101308.75;5090541;27;44793;-86
2022/03/04 01:18:00;;;;;;;;;67.67;53.00;;;;;9.38;100.00;101310.69;5094822;27;44759;-86
2022/03/04 01:20:25;;;;;;;;;71.00;53.00;;;;;9.38;100.00;101308.94;5115606;27;44841;-85
2022/03/04 01:22:51;;;;;;;;;62.33;51.00;;;;;9.40;100.00;101311.47;5095322;27;45283;-87
2022/03/04 01:25:16;;;;;;;;;66.67;51.67;;;;;9.41;100.00;101306.09;5088140;27;45313;-87
2022/03/04 01:27:42;;;;;;;;;64.67;50.33;;;;;9.41;100.00;101303.44;5089748;27;44896;-85
2022/03/04 01:30:09;;;;;;;;;65.00;51.33;;;;;9.40;100.00;101304.38;5090174;27;44963;-84
2022/03/04 01:32:35;;;;;;;;;67.67;52.67;;;;;9.39;100.00;101301.81;5087111;28;45023;-85
2022/03/04 01:35:01;;;;;;;;;66.00;51.33;;;;;9.39;100.00;101299.16;5086463;27;44808;-85
2022/03/04 01:37:28;;;;;;;;;69.67;51.00;;;;;9.40;100.00;101300.88;5083460;27;45271;-86
2022/03/04 01:39:53;;;;;;;;;67.67;52.00;;;;;9.40;100.00;101299.09;5082572;27;45661;-85
2022/03/04 01:42:19;;;;;;;;;68.00;51.00;;;;;9.42;100.00;101304.28;5081776;27;45159;-85
2022/03/04 01:44:46;;;;;;;;;67.00;51.33;;;;;9.43;100.00;101296.28;5080897;27;45315;-86
2022/03/04 01:47:12;;;;;;;;;63.67;50.67;;;;;9.47;100.00;101299.59;5080766;27;45284;-86
2022/03/04 01:49:41;;;;;;;;;66.67;52.00;;;;;9.49;100.00;101295.09;5078401;27;45399;-87
2022/03/04 01:52:07;;;;;;;;;68.33;50.00;;;;;9.52;100.00;101294.91;5078933;27;45338;-86
2022/03/04 01:54:34;;;;;;;;;65.33;51.33;;;;;9.55;100.00;101291.25;5081655;27;44844;-85
2022/03/04 01:56:59;;;;;;;;;65.67;49.00;;;;;9.60;100.00;101287.41;5082381;27;44772;-84
2022/03/04 01:59:25;;;;;;;;;63.00;48.67;;;;;9.65;100.00;101292.47;5101549;27;44799;-85
2022/03/04 02:01:54;;;;;;;;;65.67;49.00;;;;;9.68;100.00;101274.59;5086710;27;46713;-85
2022/03/04 02:04:20;;;;;;;;;64.33;50.00;;;;;9.69;100.00;101270.13;5098905;27;44695;-86
2022/03/04 02:06:45;;;;;;;;;65.33;51.00;;;;;9.67;100.00;101270.22;5083835;28;44650;-86
2022/03/04 02:09:11;;;;;;;;;65.00;50.33;;;;;9.65;100.00;101272.09;5084389;27;44768;-84
2022/03/04 02:11:38;;;;;;;;;64.67;50.00;;;;;9.61;100.00;101262.59;5080965;27;46124;-84
2022/03/04 02:14:04;;;;;;;;;56.67;44.00;;;;;9.54;100.00;101258.56;5081870;27;44912;-86
2022/03/04 02:16:51;;;;;;;;;69.67;51.33;;;;;9.44;100.00;101266.16;5080361;28;45631;-85
2022/03/04 02:19:17;;;;;;;;;63.33;50.33;;;;;9.40;100.00;101272.56;5080093;27;44819;-84
2022/03/04 02:21:55;;;;;;;;;60.00;49.00;;;;;9.35;100.00;101271.97;5079400;27;45501;-85
2022/03/04 02:24:24;;;;;;;;;67.33;50.33;;;;;9.34;100.00;101264.09;5080298;27;45159;-86
2022/03/04 02:26:51;;;;;;;;;69.33;52.33;;;;;9.32;100.00;101261.50;5080837;27;44895;-85
2022/03/04 02:29:17;;;;;;;;;69.67;54.00;;;;;9.31;100.00;101269.53;5083335;27;45588;-86
2022/03/04 02:31:42;;;;;;;;;65.67;49.67;;;;;9.27;100.00;101263.53;5090581;27;44967;-86
2022/03/04 02:34:08;;;;;;;;;69.00;53.00;;;;;9.24;100.00;101269.88;5085325;27;44790;-85
2022/03/04 02:36:34;;;;;;;;;73.33;54.67;;;;;9.22;100.00;101269.09;5096517;27;44829;-85
2022/03/04 02:38:59;;;;;;;;;60.67;50.67;;;;;9.22;100.00;101268.22;5079395;27;44795;-85
2022/03/04 02:41:25;;;;;;;;;67.33;49.00;;;;;9.23;100.00;101270.81;5078383;27;45307;-86
2022/03/04 02:43:50;;;;;;;;;65.33;51.33;;;;;9.24;100.00;101269.03;5079209;27;45390;-85
2022/03/04 02:46:16;;;;;;;;;55.67;42.33;;;;;9.25;100.00;101270.72;5102960;27;45065;-85
2022/03/04 02:48:41;;;;;;;;;71.33;55.67;;;;;9.28;100.00;101273.19;5086851;27;44892;-86
2022/03/04 02:51:07;;;;;;;;;68.33;53.67;;;;;9.29;100.00;101274.09;5088305;27;45083;-85
2022/03/04 02:53:32;;;;;;;;;69.67;54.33;;;;;9.33;100.00;101280.91;5099514;27;45361;-86
2022/03/04 02:55:58;;;;;;;;;70.00;54.67;;;;;9.35;100.00;101284.34;5106694;27;44800;-84
2022/03/04 02:58:24;;;;;;;;;60.33;46.00;;;;;9.41;100.00;101279.56;5108891;27;45296;-86
2022/03/04 03:00:50;;;;;;;;;74.00;55.67;;;;;9.46;100.00;101268.72;5109878;27;46912;-83
2022/03/04 03:03:15;;;;;;;;;67.67;52.67;;;;;9.50;100.00;101271.13;5107187;27;44792;-85
2022/03/04 03:05:40;;;;;;;;;65.00;50.00;;;;;9.57;100.00;101279.59;5106289;27;44821;-84
2022/03/04 03:08:06;;;;;;;;;58.67;47.67;;;;;9.63;100.00;101273.97;5105502;27;44870;-87
2022/03/04 03:10:32;;;;;;;;;64.33;47.67;;;;;9.69;100.00;101275.44;5106994;27;45217;-84
2022/03/04 03:12:58;;;;;;;;;65.67;47.67;;;;;9.76;100.00;101263.53;5107014;27;45328;-85
2022/03/04 03:15:24;;;;;;;;;61.00;47.33;;;;;9.81;100.00;101268.59;5106089;27;44726;-85
2022/03/04 03:17:49;;;;;;;;;62.67;48.00;;;;;9.84;100.00;101263.13;5105481;27;44799;-85
2022/03/04 03:20:16;;;;;;;;;61.33;47.33;;;;;9.88;100.00;101262.88;5102304;27;46913;-85
2022/03/04 03:22:41;;;;;;;;;60.67;48.33;;;;;9.93;100.00;101266.13;5101212;27;44715;-85
2022/03/04 03:25:07;;;;;;;;;59.00;47.33;;;;;9.97;100.00;101266.81;5102723;27;45072;-85
2022/03/04 03:27:34;;;;;;;;;58.33;45.33;;;;;10.00;100.00;101267.47;5103512;27;44767;-86
2022/03/04 03:29:59;;;;;;;;;58.67;47.33;;;;;10.02;100.00;101275.38;5107405;27;45390;-85
2022/03/04 03:32:25;;;;;;;;;59.67;48.33;;;;;10.04;100.00;101271.69;5108814;27;45429;-86
2022/03/04 03:34:51;;;;;;;;;60.00;47.33;;;;;10.07;100.00;101273.31;5108387;27;44806;-85
2022/03/04 03:37:16;;;;;;;;;54.67;44.00;;;;;10.09;100.00;101271.44;5100094;27;44803;-85
2022/03/04 03:39:42;;;;;;;;;59.00;43.67;;;;;10.10;100.00;101270.47;5102424;27;45419;-85
2022/03/04 03:42:08;;;;;;;;;55.33;44.67;;;;;10.11;100.00;101269.56;5115871;27;45364;-84
2022/03/04 03:44:33;;;;;;;;;57.00;46.67;;;;;10.14;100.00;101268.50;5109264;27;44737;-86
2022/03/04 03:46:59;;;;;;;;;55.33;45.00;;;;;10.14;100.00;101276.47;5100946;27;45297;-84
2022/03/04 03:49:24;;;;;;;;;58.00;46.00;;;;;10.16;100.00;101272.81;5099822;27;45362;-88
2022/03/04 03:51:50;;;;;;;;;57.33;46.00;;;;;10.17;100.00;101273.66;5098391;27;45360;-87
2022/03/04 03:54:16;;;;;;;;;66.33;49.67;;;;;10.18;100.00;101275.38;5117874;27;45109;-86
2022/03/04 03:56:42;;;;;;;;;58.33;46.00;;;;;10.20;100.00;101279.66;5119516;27;45499;-86
2022/03/04 03:59:07;;;;;;;;;55.33;45.00;;;;;10.24;100.00;101272.38;5119946;27;45279;-85
2022/03/04 04:01:33;;;;;;;;;55.67;45.67;;;;;10.28;100.00;101281.91;5123289;27;44835;-86
2022/03/04 04:03:59;;;;;;;;;57.00;45.00;;;;;10.30;100.00;101272.06;5121734;27;45426;-84
2022/03/04 04:06:24;;;;;;;;;59.50;46.50;;;;;10.32;100.00;101275.47;5126348;27;44864;-86
2022/03/04 04:08:49;;;;;;;;;55.67;46.33;;;;;10.26;100.00;101278.47;5126119;27;45310;-85
2022/03/04 04:11:15;;;;;;;;;59.00;46.67;;;;;10.24;100.00;101285.66;5119452;27;45325;-85
2022/03/04 04:13:40;;;;;;;;;56.33;44.67;;;;;10.23;100.00;101286.56;5121693;27;45467;-86
2022/03/04 04:16:06;;;;;;;;;57.00;45.67;;;;;10.21;100.00;101294.63;5121420;27;45226;-86
2022/03/04 04:18:31;;;;;;;;;55.33;44.67;;;;;10.25;100.00;101290.03;5119998;27;46475;-84
2022/03/04 04:20:57;;;;;;;;;52.00;43.33;;;;;10.27;100.00;101288.16;5119377;27;45405;-86
2022/03/04 04:23:22;;;;;;;;;55.00;44.33;;;;;10.29;100.00;101288.91;5122243;27;45365;-85
2022/03/04 04:25:48;;;;;;;;;56.67;46.00;;;;;10.29;100.00;101288.91;5127554;27;44805;-85
2022/03/04 04:28:13;;;;;;;;;54.33;43.00;;;;;10.31;100.00;101287.03;5129541;27;45412;-84
2022/03/04 04:30:39;;;;;;;;;58.67;48.33;;;;;10.32;100.00;101287.91;5133911;27;44777;-84
2022/03/04 04:33:04;;;;;;;;;64.67;50.33;;;;;10.31;100.00;101292.34;5133379;27;45199;-86
2022/03/04 04:35:29;;;;;;;;;61.00;48.33;;;;;10.31;100.00;101295.00;5124613;27;44736;-85
2022/03/04 04:37:55;;;;;;;;;64.33;48.00;;;;;10.29;100.00;101304.84;5123143;27;46078;-85
2022/03/04 04:40:21;;;;;;;;;74.33;56.00;;;;;10.26;100.00;101299.72;5124393;27;44892;-86
2022/03/04 04:42:46;;;;;;;;;72.67;55.67;;;;;10.22;100.00;101301.66;5122480;27;44774;-86
2022/03/04 04:45:12;;;;;;;;;75.33;59.67;;;;;10.17;100.00;101297.56;5121604;27;45200;-85
2022/03/04 04:47:37;;;;;;;;;79.67;65.00;;;;;10.12;100.00;101308.44;5120673;27;46592;-85
2022/03/04 04:50:04;;;;;;;;;78.00;63.75;;;;;10.08;100.00;101311.34;5118851;27;45261;-85
2022/03/04 04:52:29;;;;;;;;;79.00;64.25;;;;;10.04;100.00;101316.81;5113192;27;45495;-84
2022/03/04 04:54:55;;;;;;;;;81.33;66.00;;;;;10.06;100.00;101314.09;5097258;27;45319;-85
2022/03/04 04:57:20;;;;;;;;;76.00;67.50;;;;;10.05;100.00;101315.00;5095869;27;46704;-85
2022/03/04 04:59:46;;;;;;;;;83.00;67.33;;;;;10.03;100.00;101314.25;5096051;27;44799;-87
2022/03/04 05:02:12;;;;;;;;;82.50;71.50;;;;;10.01;100.00;101313.50;5095925;27;45291;-86
2022/03/04 05:04:37;;;;;;;;;75.33;61.00;;;;;10.01;100.00;101309.03;5097635;27;45309;-85
2022/03/04 05:07:03;;;;;;;;;80.00;68.75;;;;;10.03;100.00;101317.75;5099768;27;44998;-85
2022/03/04 05:09:29;;;;;;;;;79.67;65.33;;;;;10.04;100.00;101308.00;5098094;27;45478;-84
2022/03/04 05:11:54;;;;;;;;;85.67;67.00;;;;;10.04;100.00;101316.81;5102192;27;44752;-84
2022/03/04 05:14:20;;;;;;;;;79.33;65.67;;;;;10.04;100.00;101318.59;5103468;27;44789;-83
2022/03/04 05:16:46;;;;;;;;;80.75;67.75;;;;;10.03;100.00;101328.38;5101874;27;45675;-84
2022/03/04 05:19:11;;;;;;;;;79.33;69.33;;;;;10.04;100.00;101329.22;5099512;27;45365;-84
2022/03/04 05:21:36;;;;;;;;;82.33;66.33;;;;;10.05;100.00;101326.47;5099568;27;45317;-83
2022/03/04 05:24:03;;;;;;;;;74.25;62.50;;;;;10.04;100.00;101323.91;5099791;27;44960;-83
2022/03/04 05:26:38;;;;;;;;;76.00;61.00;;;;;10.10;100.00;101328.03;5102437;27;45206;-83
2022/03/04 05:29:08;;;;;;;;;76.33;58.33;;;;;10.12;100.00;101329.66;5099657;27;45218;-85
2022/03/04 05:31:33;;;;;;;;;78.00;61.67;;;;;10.14;100.00;101333.09;5097987;27;44834;-84
2022/03/04 05:33:59;;;;;;;;;78.67;61.33;;;;;10.16;100.00;101336.53;5096816;27;45371;-84
2022/03/04 05:36:24;;;;;;;;;75.00;59.33;;;;;10.15;100.00;101331.28;5097095;27;45222;-85
2022/03/04 05:38:50;;;;;;;;;70.00;58.00;;;;;10.13;100.00;101338.50;5096240;27;45531;-85
2022/03/04 05:41:17;;;;;;;;;73.00;58.67;;;;;10.14;100.00;101337.53;5096522;27;45478;-84
2022/03/04 05:43:46;;;;;;;;;75.00;56.67;;;;;10.19;100.00;101336.34;5096222;27;44796;-84
2022/03/04 05:46:13;;;;;;;;;71.00;54.33;;;;;10.22;100.00;101333.53;5097110;27;45410;-85
2022/03/04 05:48:38;;;;;;;;;71.00;54.33;;;;;10.24;100.00;101331.66;5099903;27;45399;-85
2022/03/04 05:51:04;;;;;;;;;65.67;54.33;;;;;10.27;100.00;101336.81;5099245;27;45402;-84
2022/03/04 05:53:31;;;;;;;;;71.67;56.67;;;;;10.30;100.00;101335.78;5099614;27;44854;-84
2022/03/04 05:55:56;;;;;;;;;74.67;56.67;;;;;10.33;100.00;101329.44;5096529;27;45063;-84
2022/03/04 05:58:21;;;;;;;;;71.33;54.67;;;;;10.34;100.00;101326.69;5097168;27;45324;-84
2022/03/04 06:00:47;;;;;;;;;74.33;58.67;;;;;10.35;100.00;101328.41;5100065;27;45339;-85
2022/03/04 06:03:13;;;;;;;;;73.33;60.00;;;;;10.35;100.00;101332.84;5107692;27;45382;-84
2022/03/04 06:05:39;;;;;;;;;72.00;56.00;;;;;10.35;100.00;101336.38;5112656;27;45345;-88
2022/03/04 06:08:04;;;;;;;;;71.67;55.67;;;;;10.37;100.00;101339.81;5109188;27;45341;-86
2022/03/04 06:10:30;;;;;;;;;73.00;58.33;;;;;10.39;100.00;101337.91;5100519;27;44739;-87
2022/03/04 06:12:55;;;;;;;;;72.00;55.33;;;;;10.40;100.00;101336.97;5098058;27;44810;-85
2022/03/04 06:15:20;;;;;;;;;73.00;58.33;;;;;10.41;100.00;101343.16;5081606;27;45319;-87
2022/03/04 06:17:48;;;;;;;;;75.67;62.33;;;;;10.40;100.00;101346.75;5091490;27;44748;-85
2022/03/04 06:20:14;;;;;;;;;80.67;69.00;;;;;10.37;100.00;101355.75;5105653;27;45484;-87
2022/03/04 06:22:40;;;;;;;;;80.33;62.00;;;;;10.35;100.00;101360.28;5108791;27;44750;-87
2022/03/04 06:25:05;;;;;;;;;78.00;62.67;;;;;10.35;100.00;101362.06;5109656;27;45102;-85
2022/03/04 06:27:31;;;;;;;;;76.00;63.00;;;;;10.31;100.00;101365.84;5105319;27;44680;-85
2022/03/04 06:29:56;;;;;;;;;77.33;63.33;;;;;10.27;100.00;101371.31;5109178;27;44749;-87
2022/03/04 06:32:21;;;;;;;;;77.00;61.67;;;;;10.26;100.00;101376.72;5106986;27;45232;-85
2022/03/04 06:34:47;;;;;;;;;78.00;60.33;;;;;10.25;100.00;101375.00;5104694;27;46755;-86
2022/03/04 06:37:12;;;;;;;;;79.33;61.67;;;;;10.26;100.00;101374.06;5090506;27;44759;-89
2022/03/04 06:39:39;;;;;;;;;68.67;54.67;;;;;10.25;100.00;101373.22;5086926;27;44740;-86
2022/03/04 06:42:04;;;;;;;;;74.33;58.67;;;;;10.25;100.00;101367.03;5102097;27;44891;-87
2022/03/04 06:44:30;;;;;;;;;69.33;54.67;;;;;10.27;100.00;101370.47;5100445;27;46466;-87
2022/03/04 06:46:55;;;;;;;;;75.33;59.33;;;;;10.28;100.00;101373.03;5091445;27;44863;-86
2022/03/04 06:49:20;;;;;;;;;73.67;59.00;;;;;10.29;100.00;101379.19;5079434;27;44976;-87
2022/03/04 06:51:46;;;;;;;;;74.33;57.67;;;;;10.29;100.00;101379.19;5080322;27;44825;-86
2022/03/04 06:54:11;;;;;;;;;73.67;59.67;;;;;10.31;100.00;101387.97;5099053;27;45349;-87
2022/03/04 06:56:38;;;;;;;;;69.67;55.33;;;;;10.33;100.00;101396.69;5112224;27;45371;-94
2022/03/04 06:59:03;;;;;;;;;64.00;52.00;;;;;10.36;100.00;101403.63;5105842;27;45358;-87
2022/03/04 07:01:28;;;;;;;;;73.33;56.67;;;;;10.38;100.00;101409.72;5102833;27;45321;-87
2022/03/04 07:03:54;;;;;;;;;68.67;54.00;;;;;10.41;100.00;101394.47;5098935;27;45053;-87
2022/03/04 07:06:19;;;;;;;;;68.00;54.00;;;;;10.43;100.00;101402.34;5088304;27;44808;-87
2022/03/04 07:08:45;;;;;;;;;74.00;56.00;;;;;10.45;100.00;101398.69;5083062;27;45394;-87
2022/03/04 07:11:10;;;;;;;;;73.33;54.00;;;;;10.49;100.00;101399.34;5101601;27;45352;-88
2022/03/04 07:13:36;;;;;;;;;66.00;52.00;;;;;10.52;100.00;101405.34;5104924;27;45253;-87
2022/03/04 07:16:03;;;;;;;;;70.33;55.00;;;;;10.55;100.00;101407.84;5105120;27;44767;-88
2022/03/04 07:18:29;;;;;;;;;72.00;55.67;;;;;10.55;100.00;101399.00;5104252;27;45505;-88
2022/03/04 07:20:56;;;;;;;;;70.00;55.33;;;;;10.60;100.00;101404.06;5102869;27;45467;-88
2022/03/04 07:23:22;;;;;;;;;70.67;54.00;;;;;10.62;100.00;101412.81;5103796;27;45534;-87
2022/03/04 07:25:48;;;;;;;;;71.33;54.67;;;;;10.66;100.00;101415.19;5100621;27;44912;-88
2022/03/04 07:28:13;;;;;;;;;70.33;53.00;;;;;10.67;100.00;101418.72;5100581;27;45401;-89
2022/03/04 07:30:38;;;;;;;;;71.33;55.33;;;;;10.72;100.00;101420.16;5102442;27;44824;-88
2022/03/04 07:33:04;;;;;;;;;68.67;52.67;;;;;10.74;100.00;101420.94;5104663;27;46704;-88
2022/03/04 07:35:29;;;;;;;;;69.33;50.67;;;;;10.76;100.00;101418.19;5109202;27;45385;-86
2022/03/04 07:37:55;;;;;;;;;67.00;52.33;;;;;10.80;100.00;101420.59;5104960;27;45367;-86
2022/03/04 07:40:20;;;;;;;;;61.00;49.00;;;;;10.84;100.00;101415.97;5083093;27;44796;-87
2022/03/04 07:42:46;;;;;;;;;69.00;53.00;;;;;10.83;100.00;101411.59;5080882;27;45595;-87
2022/03/04 07:45:12;;;;;;;;;59.33;47.00;;;;;10.81;100.00;101418.78;5081335;27;44733;-88
2022/03/04 07:47:39;;;;;;;;;65.00;50.00;;;;;10.80;100.00;101415.28;5084129;27;45401;-89
2022/03/04 07:50:09;;;;;;;;;63.00;48.67;;;;;10.84;100.00;101417.78;5086326;27;45338;-88
2022/03/04 07:52:35;;;;;;;;;68.33;53.67;;;;;10.90;100.00;101414.75;5081034;27;45284;-87
2022/03/04 07:55:06;;;;;;;;;61.67;49.33;;;;;10.91;100.00;101419.97;5079362;27;45319;-87
2022/03/04 07:57:32;;;;;;;;;63.67;48.67;;;;;10.98;100.00;101423.16;5082239;27;45283;-88
2022/03/04 07:59:57;;;;;;;;;62.33;49.67;;;;;11.01;100.00;101422.97;5096858;27;45481;-86
2022/03/04 08:02:23;;;;;;;;;63.00;47.33;;;;;11.07;100.00;101427.91;5081225;27;46263;-88
2022/03/04 08:04:49;;;;;;;;;60.00;47.67;;;;;11.13;100.00;101427.56;5098613;27;45484;-86
2022/03/04 08:07:15;;;;;;;;;61.33;47.67;;;;;11.18;100.00;101429.97;5101205;27;45327;-87
2022/03/04 08:09:41;;;;;;;;;60.67;47.00;;;;;11.26;100.00;101428.56;5088464;27;45343;-88
2022/03/04 08:12:07;;;;;;;;;62.00;47.00;;;;;11.30;100.00;101432.75;5096410;27;45432;-88
2022/03/04 08:14:42;;;;;;;;;61.67;48.00;;;;;11.31;100.00;101433.59;5108549;27;44898;-87
2022/03/04 08:17:08;;;;;;;;;65.33;51.67;;;;;11.30;100.00;101443.38;5094747;27;44665;-88
2022/03/04 08:19:35;;;;;;;;;62.00;50.00;;;;;11.26;100.00;101438.34;5093142;27;44807;-85
2022/03/04 08:22:01;;;;;;;;;69.00;52.67;;;;;11.21;100.00;101440.41;5109435;27;46291;-86
2022/03/04 08:24:28;;;;;;;;;68.33;52.00;;;;;11.17;100.00;101442.41;5101895;27;45351;-86
2022/03/04 08:26:53;;;;;;;;;71.67;54.00;;;;;11.11;100.00;101445.41;5113290;27;44828;-84
2022/03/04 08:29:19;;;;;;;;;70.67;54.67;;;;;11.10;100.00;101441.03;5103586;27;45642;-87
2022/03/04 08:31:45;;;;;;;;;71.67;53.33;;;;;11.12;100.00;101452.47;5103948;27;45384;-86
2022/03/04 08:34:10;;;;;;;;;66.33;52.00;;;;;11.17;100.00;101452.16;5104283;27;45258;-86
2022/03/04 08:36:36;;;;;;;;;64.00;50.33;;;;;11.21;100.00;101454.56;5103060;27;45252;-86
2022/03/04 08:39:05;;;;;;;;;65.00;52.67;;;;;11.33;100.00;101453.88;5100274;27;45326;-89
2022/03/04 08:41:32;;;;;;;;;68.00;50.33;;;;;11.49;100.00;101442.31;5089008;27;45724;-88
2022/03/04 08:43:58;;;;;;;;;63.67;50.00;;;;;11.59;100.00;101448.78;5093096;27;45282;-87
2022/03/04 08:46:23;;;;;;;;;65.00;50.00;;;;;11.65;100.00;101451.06;5092948;27;44816;-86
2022/03/04 08:48:49;;;;;;;;;63.33;49.33;;;;;11.73;100.00;101447.97;5093972;27;44914;-86
2022/03/04 08:51:15;;;;;;;;;68.33;53.67;;;;;11.81;100.00;101448.38;5096645;27;45157;-88
2022/03/04 08:53:40;;;;;;;;;68.33;51.00;;;;;11.92;100.00;101455.72;5101252;27;44926;-87
2022/03/04 08:56:06;;;;;;;;;63.33;49.33;;;;;12.02;100.00;101462.19;5093655;27;44778;-88
2022/03/04 08:58:31;;;;;;;;;64.00;49.33;;;;;12.11;100.00;101460.78;5105542;27;44799;-87
2022/03/04 09:00:57;;;;;;;;;67.00;51.00;;;;;12.24;100.00;101461.75;5105643;27;45442;-89
2022/03/04 09:03:22;;;;;;;;;66.33;48.00;;;;;12.30;100.00;101456.03;5099154;27;44800;-86
2022/03/04 09:05:48;;;;;;;;;66.67;52.00;;;;;12.37;100.00;101460.00;5090415;27;44832;-85
2022/03/04 09:08:14;;;;;;;;;64.00;50.00;;;;;12.44;100.00;101453.34;5099572;27;44794;-87
2022/03/04 09:10:39;;;;;;;;;69.00;53.00;;;;;12.57;100.00;101454.28;5096600;27;45481;-86
2022/03/04 09:13:05;;;;;;;;;67.00;52.33;;;;;12.71;100.00;101455.19;5086807;27;44848;-87
2022/03/04 09:15:32;;;;;;;;;65.00;51.00;;;;;12.82;100.00;101453.56;5094355;27;44966;-87
2022/03/04 09:17:57;;;;;;;;;67.00;51.67;;;;;12.91;100.00;101451.22;5084370;27;44885;-86
2022/03/04 09:20:23;;;;;;;;;64.67;51.33;;;;;12.94;100.00;101457.22;5097346;27;47119;-87
2022/03/04 09:22:48;;;;;;;;;67.67;55.33;;;;;13.03;100.00;101456.63;5084020;27;45408;-87
2022/03/04 09:25:14;;;;;;;;;69.00;52.33;;;;;13.09;100.00;101455.38;5083320;27;45434;-85
2022/03/04 09:27:44;;;;;;;;;71.33;53.33;;;;;13.13;100.00;101457.72;5096430;27;45255;-86
2022/03/04 09:30:11;;;;;;;;;67.00;52.67;;;;;13.15;100.00;101455.00;5091143;27;45059;-87
2022/03/04 09:32:38;;;;;;;;;68.00;53.00;;;;;13.28;100.00;101453.22;5081388;27;45413;-87
2022/03/04 09:35:04;;;;;;;;;66.33;51.00;;;;;13.39;100.00;101447.16;5080440;27;44693;-87
2022/03/04 09:37:30;;;;;;;;;71.67;54.67;;;;;13.43;100.00;101453.16;5080610;27;44945;-87
2022/03/04 09:39:55;;;;;;;;;75.33;57.67;;;;;13.46;100.00;101450.28;5091545;27;45416;-86
2022/03/04 09:42:22;;;;;;;;;71.33;53.67;;;;;13.55;100.00;101452.34;5080034;27;45323;-88
2022/03/04 09:44:48;;;;;;;;;70.00;54.00;;;;;13.62;100.00;101450.94;5080367;27;44756;-85
2022/03/04 09:47:15;;;;;;;;;82.00;59.00;;;;;13.69;100.00;101457.59;5084564;27;44737;-89
2022/03/04 09:49:41;;;;;;;;;78.33;58.67;;;;;13.80;100.00;101456.84;5091460;27;45471;-88
2022/03/04 09:52:08;;;;;;;;;76.00;57.67;;;;;13.88;100.00;101447.34;5081552;27;45441;-87
2022/03/04 09:54:34;;;;;;;;;75.67;57.33;;;;;13.95;100.00;101458.44;5080014;27;45271;-87
2022/03/04 09:56:59;;;;;;;;;74.33;55.33;;;;;13.97;100.00;101458.34;5083748;27;44947;-87
2022/03/04 09:59:25;;;;;;;;;71.33;55.33;;;;;13.97;100.00;101453.84;5098874;27;46739;-87
2022/03/04 10:01:51;;;;;;;;;77.00;58.33;;;;;14.08;100.00;101459.31;5092792;27;45284;-87
2022/03/04 10:04:17;;;;;;;;;69.00;53.67;;;;;14.09;100.00;101454.81;5097526;27;44719;-85
2022/03/04 10:06:49;;;;;;;;;74.00;57.67;;;;;14.06;100.00;101457.69;5117605;27;44953;-86
2022/03/04 10:09:34;;;;;;;;;75.00;59.33;;;;;14.10;100.00;101453.84;5082214;27;45452;-85
2022/03/04 10:12:04;;;;;;;;;80.00;58.33;;;;;14.15;100.00;101459.72;5080838;27;44754;-85
2022/03/04 10:14:30;;;;;;;;;76.67;59.00;;;;;14.21;100.00;101455.75;5097012;27;44825;-86
2022/03/04 10:16:58;;;;;;;;;77.67;58.33;;;;;14.26;100.00;101461.63;5099668;27;44858;-85
2022/03/04 10:19:24;;;;;;;;;76.33;59.00;;;;;14.28;100.00;101455.22;5095164;27;45199;-84
2022/03/04 10:21:53;;;;;;;;;75.33;58.33;;;;;14.31;100.00;101460.38;5078864;27;45355;-84
2022/03/04 10:24:22;;;;;;;;;81.33;61.33;;;;;14.36;100.00;101452.03;5083350;27;44706;-86
2022/03/04 10:27:01;;;;;;;;;80.00;60.67;;;;;14.35;100.00;101455.63;5082433;27;45573;-86
2022/03/04 10:29:28;;;;;;;;;75.33;57.67;;;;;14.44;100.00;101452.31;5084015;27;45293;-86
2022/03/04 10:32:11;;;;;;;;;73.67;59.33;;;;;14.48;100.00;101461.00;5083611;27;45243;-86
2022/03/04 10:34:56;;;;;;;;;74.67;58.33;;;;;14.52;100.00;101463.34;5084683;27;45347;-85
2022/03/04 10:37:55;;;;;;;;;76.67;56.67;;;;;14.47;100.00;101461.94;5079936;27;44806;-87
2022/03/04 10:40:23;;;;;;;;;76.67;59.00;;;;;14.45;100.00;101464.72;5082747;27;46944;-87
2022/03/04 10:42:56;;;;;;;;;78.00;60.00;;;;;14.47;100.00;101465.47;5085144;28;45271;-85
2022/03/04 10:45:25;;;;;;;;;76.33;55.00;;;;;14.53;100.00;101459.72;5090676;27;45416;-85
2022/03/04 10:47:56;;;;;;;;;72.67;53.67;;;;;14.61;100.00;101462.69;5110663;27;44908;-84
2022/03/04 10:50:31;;;;;;;;;72.33;56.33;;;;;14.67;100.00;101468.56;5091509;27;45409;-85
2022/03/04 10:53:02;;;;;;;;;74.67;55.00;;;;;14.67;100.00;101461.38;5100646;27;44760;-85
2022/03/04 10:55:39;;;;;;;;;74.00;56.33;;;;;14.65;100.00;101456.16;5104790;27;45336;-85
2022/03/04 10:58:14;;;;;;;;;74.33;57.00;;;;;14.73;100.00;101454.72;5096394;27;44974;-84
2022/03/04 11:00:48;;;;;;;;;69.33;54.67;;;;;14.72;100.00;101459.22;5082899;27;45427;-84
2022/03/04 11:03:17;;;;;;;;;73.33;53.67;;;;;14.78;100.00;101463.28;5069181;27;45290;-86